createdAt,value
2023-05-25T00:00:21.013Z,54.07
2023-05-25T00:01:02.572Z,54.07
2023-05-25T00:01:38.349Z,53.91
2023-05-25T00:02:10.671Z,54.34
2023-05-25T00:02:46.722Z,54.05
2023-05-25T00:03:20.553Z,54.41
2023-05-25T00:03:53.129Z,54.20
2023-05-25T00:04:30.750Z,54.62
2023-05-25T00:05:03.096Z,54.71
2023-05-25T00:05:35.318Z,54.47
2023-05-25T00:06:10.468Z,54.78
2023-05-25T00:06:42.975Z,54.83
2023-05-25T00:07:15.298Z,54.79
2023-05-25T00:07:47.800Z,54.29
2023-05-25T00:08:22.614Z,54.68
2023-05-25T00:08:55.741Z,54.75
2023-05-25T00:09:27.968Z,54.76
2023-05-25T00:10:02.850Z,54.45
2023-05-25T00:10:35.592Z,54.46
2023-05-25T00:11:07.857Z,54.71
2023-05-25T00:11:40.239Z,54.98
2023-05-25T00:12:15.210Z,54.88
2023-05-25T00:12:47.810Z,54.84
2023-05-25T00:13:22.584Z,54.88
2023-05-25T00:13:55.068Z,55.20
2023-05-25T00:14:27.268Z,55.46
2023-05-25T00:15:02.192Z,55.58
2023-05-25T00:15:34.426Z,55.09
2023-05-25T00:16:07.651Z,55.04
2023-05-25T00:16:42.417Z,55.64
2023-05-25T00:17:18.976Z,55.55
2023-05-25T00:17:51.269Z,55.40
2023-05-25T00:18:25.102Z,55.49
2023-05-25T00:19:03.981Z,55.57
2023-05-25T00:19:36.285Z,55.60
2023-05-25T00:20:09.961Z,55.60
2023-05-25T00:20:44.822Z,55.71
2023-05-25T00:21:17.146Z,55.70
2023-05-25T00:21:50.263Z,55.80
2023-05-25T00:22:25.053Z,55.72
2023-05-25T00:22:57.206Z,55.41
2023-05-25T00:23:29.519Z,55.61
2023-05-25T00:24:04.884Z,55.86
2023-05-25T00:24:37.225Z,55.93
2023-05-25T00:25:10.165Z,55.34
2023-05-25T00:25:45.423Z,55.51
2023-05-25T00:26:17.841Z,55.98
2023-05-25T00:26:50.182Z,55.72
2023-05-25T00:27:25.615Z,56.02
2023-05-25T00:27:57.802Z,55.58
2023-05-25T00:28:30.284Z,55.82
2023-05-25T00:29:07.334Z,56.05
2023-05-25T00:29:39.639Z,56.10
2023-05-25T00:30:13.997Z,56.16
2023-05-25T00:30:48.799Z,56.29
2023-05-25T00:31:21.109Z,56.02
2023-05-25T00:31:56.310Z,55.88
2023-05-25T00:32:31.376Z,56.22
2023-05-25T00:33:03.734Z,56.52
2023-05-25T00:33:36.541Z,56.23
2023-05-25T00:34:11.370Z,56.18
2023-05-25T00:34:43.548Z,56.62
2023-05-25T00:35:16.505Z,56.35
2023-05-25T00:35:52.799Z,56.42
2023-05-25T00:36:25.464Z,56.41
2023-05-25T00:36:57.702Z,56.64
2023-05-25T00:37:29.918Z,56.31
2023-05-25T00:38:04.747Z,56.49
2023-05-25T00:38:36.969Z,56.51
2023-05-25T00:39:10.698Z,56.65
2023-05-25T00:39:47.838Z,56.88
2023-05-25T00:40:20.319Z,57.07
2023-05-25T00:40:56.466Z,57.00
2023-05-25T00:41:31.886Z,56.84
2023-05-25T00:42:06.625Z,56.91
2023-05-25T00:42:39.600Z,56.71
2023-05-25T00:43:20.989Z,56.98
2023-05-25T00:43:53.308Z,57.03
2023-05-25T00:44:25.575Z,56.89
2023-05-25T00:45:00.785Z,57.25
2023-05-25T00:45:32.978Z,57.25
2023-05-25T00:46:05.249Z,56.93
2023-05-25T00:46:41.048Z,57.31
2023-05-25T00:51:23.818Z,57.67
2023-05-25T00:51:58.829Z,57.84
2023-05-25T00:52:31.400Z,58.40
2023-05-25T00:53:03.878Z,58.32
2023-05-25T00:53:39.977Z,58.00
2023-05-25T00:54:14.977Z,58.22
2023-05-25T00:54:52.001Z,58.66
2023-05-25T00:55:30.267Z,58.74
2023-05-25T00:56:08.601Z,58.42
2023-05-25T00:56:42.834Z,58.74
2023-05-25T00:57:20.435Z,58.94
2023-05-25T00:57:55.360Z,58.84
2023-05-25T00:58:28.441Z,58.96
2023-05-25T00:59:07.096Z,59.05
2023-05-25T00:59:46.805Z,58.83
2023-05-25T01:00:21.473Z,59.51
2023-05-25T01:01:00.210Z,59.30
2023-05-25T01:01:40.406Z,59.25
2023-05-25T01:02:17.574Z,59.12
2023-05-25T01:02:53.339Z,59.36
2023-05-25T01:03:30.010Z,59.48
2023-05-25T01:04:05.262Z,59.29
2023-05-25T01:04:47.133Z,59.36
2023-05-25T01:05:21.526Z,59.72
2023-05-25T01:05:55.047Z,59.46
2023-05-25T01:06:35.145Z,59.22
2023-05-25T01:07:11.092Z,59.82
2023-05-25T01:07:45.385Z,60.03
2023-05-25T01:08:22.961Z,59.82
2023-05-25T01:09:00.891Z,60.08
2023-05-25T01:09:34.770Z,59.83
2023-05-25T01:10:12.593Z,59.87
2023-05-25T01:10:48.980Z,59.88
2023-05-25T01:11:25.562Z,60.03
2023-05-25T01:12:02.537Z,60.27
2023-05-25T01:12:38.764Z,60.38
2023-05-25T01:13:14.820Z,60.40
2023-05-25T01:13:51.568Z,60.18
2023-05-25T01:14:25.164Z,60.48
2023-05-25T01:15:01.026Z,60.29
2023-05-25T01:15:33.609Z,60.58
2023-05-25T01:16:07.521Z,60.39
2023-05-25T01:16:43.334Z,60.55
2023-05-25T01:17:16.106Z,60.76
2023-05-25T01:17:54.285Z,60.60
2023-05-25T01:18:29.147Z,60.46
2023-05-25T01:19:02.537Z,60.30
2023-05-25T01:19:36.124Z,60.54
2023-05-25T01:20:12.246Z,60.48
2023-05-25T01:21:00.322Z,60.34
2023-05-25T01:21:38.197Z,60.41
2023-05-25T01:22:18.659Z,60.55
2023-05-25T01:22:55.828Z,61.06
2023-05-25T01:23:33.632Z,60.81
2023-05-25T01:24:17.768Z,61.16
2023-05-25T01:24:54.016Z,61.43
2023-05-25T01:25:32.111Z,61.03
2023-05-25T01:26:12.991Z,61.41
2023-05-25T01:26:50.617Z,61.48
2023-05-25T01:27:30.806Z,61.44
2023-05-25T01:28:04.402Z,61.49
2023-05-25T01:28:41.976Z,61.86
2023-05-25T01:29:18.658Z,61.52
2023-05-25T01:29:51.444Z,61.97
2023-05-25T01:30:25.912Z,61.74
2023-05-25T01:31:02.547Z,61.71
2023-05-25T01:31:36.422Z,61.92
2023-05-25T01:32:14.320Z,61.60
2023-05-25T01:32:47.027Z,61.78
2023-05-25T01:33:19.536Z,62.09
2023-05-25T01:33:56.518Z,61.76
2023-05-25T01:34:30.335Z,61.65
2023-05-25T01:35:03.801Z,61.87
2023-05-25T01:35:37.143Z,62.12
2023-05-25T01:36:14.534Z,61.99
2023-05-25T01:36:46.916Z,62.12
2023-05-25T01:37:20.632Z,62.03
2023-05-25T01:37:55.834Z,62.08
2023-05-25T01:38:28.053Z,62.34
2023-05-25T01:39:00.396Z,62.27
2023-05-25T01:39:35.279Z,62.44
2023-05-25T01:40:09.247Z,62.28
2023-05-25T01:40:41.429Z,62.00
2023-05-25T01:41:16.390Z,62.31
2023-05-25T01:41:49.088Z,62.39
2023-05-25T01:42:21.369Z,62.42
2023-05-25T01:42:56.148Z,62.55
2023-05-25T01:43:28.430Z,62.10
2023-05-25T01:44:01.105Z,62.51
2023-05-25T01:44:33.462Z,61.97
2023-05-25T01:45:11.115Z,62.39
2023-05-25T01:45:43.808Z,62.22
2023-05-25T01:46:27.091Z,62.35
2023-05-25T01:47:08.550Z,62.11
2023-05-25T01:47:47.036Z,62.21
2023-05-25T01:48:30.233Z,62.46
2023-05-25T01:49:13.557Z,62.32
2023-05-25T01:49:55.133Z,62.27
2023-05-25T01:50:35.686Z,62.36
2023-05-25T01:51:17.620Z,62.22
2023-05-25T01:52:03.226Z,62.21
2023-05-25T01:52:38.861Z,62.52
2023-05-25T01:53:16.042Z,62.15
2023-05-25T01:53:57.093Z,62.15
2023-05-25T01:54:35.828Z,62.70
2023-05-25T01:55:15.736Z,62.54
2023-05-25T01:55:53.864Z,62.56
2023-05-25T01:56:29.476Z,62.51
2023-05-25T01:57:07.146Z,62.43
2023-05-25T01:57:44.444Z,62.33
2023-05-25T01:58:18.875Z,62.14
2023-05-25T01:58:54.688Z,62.12
2023-05-25T01:59:28.855Z,62.47
2023-05-25T02:00:03.608Z,62.49
2023-05-25T02:00:49.704Z,62.22
2023-05-25T02:01:23.546Z,62.40
2023-05-25T02:01:57.107Z,62.40
2023-05-25T02:02:34.261Z,62.32
2023-05-25T02:03:06.703Z,61.79
2023-05-25T02:03:41.392Z,61.92
2023-05-25T02:04:17.766Z,61.83
2023-05-25T02:04:50.312Z,62.42
2023-05-25T02:05:22.570Z,61.88
2023-05-25T02:05:58.199Z,61.71
2023-05-25T02:06:33.066Z,61.67
2023-05-25T02:07:11.364Z,61.63
2023-05-25T02:07:46.239Z,61.57
2023-05-25T02:08:18.672Z,61.65
2023-05-25T02:08:50.865Z,61.72
2023-05-25T02:09:26.337Z,61.47
2023-05-25T02:09:58.660Z,61.36
2023-05-25T02:10:32.620Z,61.34
2023-05-25T02:11:07.459Z,61.78
2023-05-25T02:11:39.696Z,61.98
2023-05-25T02:12:14.662Z,61.86
2023-05-25T02:12:46.907Z,61.79
2023-05-25T02:13:19.081Z,61.99
2023-05-25T02:13:53.864Z,62.15
2023-05-25T02:14:26.296Z,62.44
2023-05-25T02:14:59.595Z,61.95
2023-05-25T02:15:36.312Z,61.98
2023-05-25T02:16:08.798Z,62.30
2023-05-25T02:16:41.132Z,61.84
2023-05-25T02:17:13.315Z,62.40
2023-05-25T02:17:48.553Z,62.32
2023-05-25T02:18:20.866Z,62.16
2023-05-25T02:18:53.375Z,61.90
2023-05-25T02:19:28.210Z,61.90
2023-05-25T02:20:02.079Z,61.97
2023-05-25T02:20:34.505Z,61.77
2023-05-25T02:21:10.327Z,62.20
2023-05-25T02:21:45.234Z,62.29
2023-05-25T02:22:17.406Z,61.86
2023-05-25T02:22:52.225Z,61.88
2023-05-25T02:23:24.450Z,61.78
2023-05-25T02:23:58.253Z,62.28
2023-05-25T02:24:34.990Z,62.44
2023-05-25T02:25:09.300Z,62.21
2023-05-25T02:25:43.032Z,62.27
2023-05-25T02:26:18.077Z,62.21
2023-05-25T02:26:51.055Z,61.89
2023-05-25T02:27:23.313Z,62.27
2023-05-25T02:27:58.072Z,62.14
2023-05-25T02:28:31.129Z,61.87
2023-05-25T02:29:03.720Z,61.77
2023-05-25T02:29:39.635Z,61.84
2023-05-25T02:30:12.533Z,61.89
2023-05-25T02:30:44.732Z,61.86
2023-05-25T02:31:20.103Z,62.18
2023-05-25T02:31:52.808Z,61.84
2023-05-25T02:32:25.135Z,62.31
2023-05-25T02:33:02.616Z,61.95
2023-05-25T02:33:34.950Z,62.38
2023-05-25T02:34:07.192Z,62.45
2023-05-25T02:34:42.024Z,62.51
2023-05-25T02:35:14.276Z,62.65
2023-05-25T02:35:47.097Z,62.50
2023-05-25T02:36:22.451Z,62.01
2023-05-25T02:36:57.476Z,62.18
2023-05-25T02:37:31.894Z,62.22
2023-05-25T02:38:07.706Z,62.37
2023-05-25T02:38:39.936Z,62.39
2023-05-25T02:39:12.865Z,62.57
2023-05-25T02:39:47.655Z,62.83
2023-05-25T02:40:19.853Z,62.42
2023-05-25T02:40:52.357Z,62.72
2023-05-25T02:41:28.699Z,62.37
2023-05-25T02:42:01.639Z,62.66
2023-05-25T02:42:33.900Z,62.45
2023-05-25T02:43:08.746Z,62.92
2023-05-25T02:43:41.227Z,62.95
2023-05-25T02:44:16.000Z,62.60
2023-05-25T02:44:48.538Z,62.94
2023-05-25T02:45:20.778Z,62.90
2023-05-25T02:45:52.998Z,63.04
2023-05-25T02:46:27.915Z,62.88
2023-05-25T02:47:00.500Z,62.80
2023-05-25T02:47:32.947Z,63.11
2023-05-25T02:48:07.788Z,63.11
2023-05-25T02:48:40.418Z,63.37
2023-05-25T02:49:13.416Z,63.21
2023-05-25T02:49:48.608Z,63.47
2023-05-25T02:50:20.808Z,63.21
2023-05-25T02:50:56.811Z,63.15
2023-05-25T02:51:29.415Z,63.43
2023-05-25T02:52:09.737Z,63.54
2023-05-25T02:52:42.026Z,63.36
2023-05-25T02:53:14.201Z,63.17
2023-05-25T02:53:48.969Z,63.46
2023-05-25T02:54:21.168Z,63.29
2023-05-25T02:54:53.413Z,63.55
2023-05-25T02:55:35.626Z,63.23
2023-05-25T02:56:10.500Z,63.43
2023-05-25T02:56:42.944Z,63.49
2023-05-25T02:57:17.985Z,63.31
2023-05-25T02:57:50.361Z,63.24
2023-05-25T02:58:40.156Z,63.33
2023-05-25T02:59:17.187Z,63.52
2023-05-25T02:59:52.845Z,63.44
2023-05-25T03:00:27.851Z,63.79
2023-05-25T03:01:00.918Z,63.86
2023-05-25T03:01:35.275Z,63.43
2023-05-25T03:02:10.349Z,63.79
2023-05-25T03:02:43.319Z,63.37
2023-05-25T03:03:15.740Z,63.50
2023-05-25T03:03:52.716Z,63.81
2023-05-25T03:04:26.602Z,63.32
2023-05-25T03:05:01.487Z,63.51
2023-05-25T03:05:38.721Z,63.97
2023-05-25T03:06:13.123Z,63.91
2023-05-25T03:06:48.143Z,63.99
2023-05-25T03:07:27.000Z,63.85
2023-05-25T03:08:00.658Z,64.16
2023-05-25T03:08:32.959Z,63.94
2023-05-25T03:09:08.934Z,64.16
2023-05-25T03:09:42.603Z,64.08
2023-05-25T03:10:14.870Z,64.17
2023-05-25T03:10:47.204Z,63.99
2023-05-25T03:11:22.771Z,63.97
2023-05-25T03:11:55.701Z,64.34
2023-05-25T03:12:27.907Z,63.88
2023-05-25T03:13:02.725Z,64.20
2023-05-25T03:13:35.489Z,64.54
2023-05-25T03:14:08.035Z,64.24
2023-05-25T03:14:43.559Z,64.63
2023-05-25T03:15:17.234Z,64.67
2023-05-25T03:15:49.790Z,64.71
2023-05-25T03:16:26.185Z,64.61
2023-05-25T03:16:59.190Z,64.98
2023-05-25T03:17:32.680Z,65.06
2023-05-25T03:18:07.611Z,65.12
2023-05-25T03:18:43.123Z,65.39
2023-05-25T03:19:20.644Z,65.02
2023-05-25T03:19:53.395Z,65.30
2023-05-25T03:20:26.744Z,65.22
2023-05-25T03:21:01.654Z,65.41
2023-05-25T03:21:33.976Z,65.37
2023-05-25T03:22:06.258Z,65.56
2023-05-25T03:22:43.165Z,65.21
2023-05-25T03:23:18.120Z,65.32
2023-05-25T03:23:50.407Z,65.27
2023-05-25T03:24:22.768Z,65.10
2023-05-25T03:24:55.018Z,65.25
2023-05-25T03:25:30.106Z,65.27
2023-05-25T03:26:03.369Z,65.29
2023-05-25T03:26:35.994Z,65.18
2023-05-25T03:27:12.988Z,65.07
2023-05-25T03:27:45.309Z,65.57
2023-05-25T03:28:18.093Z,65.20
2023-05-25T03:28:54.317Z,65.33
2023-05-25T03:29:27.495Z,65.53
2023-05-25T03:29:59.720Z,65.54
2023-05-25T03:30:34.537Z,65.72
2023-05-25T03:31:06.814Z,65.96
2023-05-25T03:31:39.206Z,65.99
2023-05-25T03:32:14.125Z,65.88
2023-05-25T03:32:46.533Z,65.74
2023-05-25T03:33:19.068Z,66.19
2023-05-25T03:33:54.108Z,65.95
2023-05-25T03:34:31.406Z,66.30
2023-05-25T03:35:04.069Z,66.47
2023-05-25T03:35:37.106Z,66.04
2023-05-25T03:36:13.934Z,66.00
2023-05-25T03:36:47.762Z,66.29
2023-05-25T03:37:22.383Z,66.43
2023-05-25T03:37:59.796Z,66.29
2023-05-25T03:38:32.049Z,66.28
2023-05-25T03:39:04.481Z,66.10
2023-05-25T03:39:39.498Z,66.66
2023-05-25T03:40:12.356Z,66.57
2023-05-25T03:40:44.584Z,66.18
2023-05-25T03:41:19.472Z,66.33
2023-05-25T03:41:51.713Z,66.44
2023-05-25T03:42:24.317Z,66.10
2023-05-25T03:42:59.226Z,66.48
2023-05-25T03:43:31.642Z,66.77
2023-05-25T03:44:03.956Z,66.34
2023-05-25T03:44:41.379Z,66.49
2023-05-25T03:45:14.224Z,66.74
2023-05-25T03:45:47.209Z,66.68
2023-05-25T03:46:22.461Z,66.67
2023-05-25T03:46:54.744Z,66.85
2023-05-25T03:47:27.028Z,66.91
2023-05-25T03:48:01.938Z,66.34
2023-05-25T03:48:34.259Z,66.79
2023-05-25T03:49:06.849Z,66.39
2023-05-25T03:49:41.778Z,66.77
2023-05-25T03:50:14.022Z,66.42
2023-05-25T03:50:49.992Z,66.64
2023-05-25T03:51:22.342Z,66.28
2023-05-25T03:51:54.668Z,66.49
2023-05-25T03:52:29.531Z,66.23
2023-05-25T03:53:04.387Z,66.35
2023-05-25T03:53:36.653Z,66.36
2023-05-25T03:54:11.593Z,66.47
2023-05-25T03:54:43.865Z,66.46
2023-05-25T03:55:16.215Z,66.40
2023-05-25T03:55:52.527Z,66.33
2023-05-25T03:56:24.997Z,66.40
2023-05-25T03:56:59.007Z,66.45
2023-05-25T03:57:31.238Z,66.49
2023-05-25T03:58:07.137Z,66.32
2023-05-25T03:58:39.441Z,66.46
2023-05-25T03:59:11.722Z,66.12
2023-05-25T03:59:47.913Z,66.27
2023-05-25T04:00:20.345Z,66.38
2023-05-25T04:00:55.210Z,66.13
2023-05-25T04:01:30.340Z,65.99
2023-05-25T04:02:02.644Z,66.29
2023-05-25T04:02:35.130Z,65.93
2023-05-25T04:03:11.322Z,65.96
2023-05-25T04:03:43.818Z,66.14
2023-05-25T04:04:16.309Z,65.98
2023-05-25T04:04:52.245Z,65.91
2023-05-25T04:05:24.654Z,66.19
2023-05-25T04:05:58.469Z,65.85
2023-05-25T04:06:34.231Z,66.15
2023-05-25T04:07:06.509Z,65.81
2023-05-25T04:07:38.814Z,65.88
2023-05-25T04:08:18.402Z,66.02
2023-05-25T04:08:50.773Z,65.81
2023-05-25T04:09:23.102Z,65.79
2023-05-25T04:09:59.834Z,65.95
2023-05-25T04:10:32.068Z,66.00
2023-05-25T04:11:06.063Z,65.65
2023-05-25T04:11:41.032Z,65.81
2023-05-25T04:12:13.324Z,65.70
2023-05-25T04:12:48.163Z,65.53
2023-05-25T04:13:21.394Z,65.83
2023-05-25T04:13:53.751Z,65.77
2023-05-25T04:14:28.696Z,65.76
2023-05-25T04:15:01.681Z,65.65
2023-05-25T04:15:34.961Z,65.73
2023-05-25T04:16:22.026Z,65.74
2023-05-25T04:17:00.356Z,65.92
2023-05-25T04:17:32.757Z,65.73
2023-05-25T04:18:08.508Z,66.08
2023-05-25T04:18:41.912Z,65.79
2023-05-25T04:19:14.269Z,65.48
2023-05-25T04:19:52.141Z,65.57
2023-05-25T04:20:46.645Z,65.63
2023-05-25T04:21:25.340Z,66.00
2023-05-25T04:22:06.752Z,65.78
2023-05-25T04:22:41.645Z,66.12
2023-05-25T04:23:24.148Z,65.55
2023-05-25T04:24:01.493Z,65.60
2023-05-25T04:24:37.017Z,65.95
2023-05-25T04:25:32.838Z,65.47
2023-05-25T04:26:06.305Z,65.98
2023-05-25T04:26:39.715Z,65.48
2023-05-25T04:27:14.749Z,65.40
2023-05-25T04:27:47.210Z,65.77
2023-05-25T04:28:24.286Z,65.87
2023-05-25T04:29:02.230Z,65.67
2023-05-25T04:29:51.144Z,65.69
2023-05-25T04:30:57.336Z,65.61
2023-05-25T04:31:49.675Z,65.75
2023-05-25T04:32:41.733Z,65.55
2023-05-25T04:33:34.459Z,65.65
2023-05-25T04:34:23.494Z,66.17
2023-05-25T04:35:06.565Z,66.09
2023-05-25T04:35:50.716Z,66.25
2023-05-25T04:36:24.233Z,65.78
2023-05-25T04:36:57.006Z,66.35
2023-05-25T04:37:32.788Z,66.07
2023-05-25T04:38:05.171Z,66.17
2023-05-25T04:38:40.328Z,66.11
2023-05-25T04:39:16.075Z,65.98
2023-05-25T04:39:53.943Z,65.98
2023-05-25T04:40:28.227Z,66.44
2023-05-25T04:41:04.065Z,66.00
2023-05-25T04:41:37.952Z,66.24
2023-05-25T04:42:17.334Z,66.13
2023-05-25T04:42:49.582Z,65.89
2023-05-25T04:43:21.866Z,65.52
2023-05-25T04:44:09.254Z,65.16
2023-05-25T04:44:45.495Z,65.03
2023-05-25T04:45:17.833Z,65.39
2023-05-25T04:45:52.888Z,65.16
2023-05-25T04:46:25.865Z,65.01
2023-05-25T04:46:59.743Z,64.82
2023-05-25T04:47:41.452Z,64.76
2023-05-25T04:48:14.481Z,64.76
2023-05-25T04:48:46.885Z,64.96
2023-05-25T04:49:21.830Z,64.89
2023-05-25T04:49:54.039Z,64.75
2023-05-25T04:50:28.847Z,64.62
2023-05-25T04:51:03.289Z,64.42
2023-05-25T04:51:37.309Z,64.54
2023-05-25T04:52:12.087Z,64.59
2023-05-25T04:52:44.545Z,64.56
2023-05-25T04:53:17.887Z,64.21
2023-05-25T04:53:55.263Z,64.54
2023-05-25T04:54:28.821Z,64.13
2023-05-25T04:55:04.059Z,64.03
2023-05-25T04:55:42.836Z,63.84
2023-05-25T04:56:15.459Z,64.23
2023-05-25T04:56:47.969Z,63.92
2023-05-25T04:57:22.861Z,63.92
2023-05-25T04:57:55.331Z,63.42
2023-05-25T04:58:29.653Z,63.29
2023-05-25T04:59:05.030Z,63.34
2023-05-25T04:59:37.524Z,63.21
2023-05-25T05:00:12.280Z,63.07
2023-05-25T05:00:47.571Z,63.05
2023-05-25T05:01:20.821Z,63.02
2023-05-25T05:01:54.099Z,63.24
2023-05-25T05:02:29.193Z,63.78
2023-05-25T05:03:02.769Z,64.11
2023-05-25T05:03:38.699Z,63.98
2023-05-25T05:04:11.402Z,63.87
2023-05-25T05:04:43.979Z,64.16
2023-05-25T05:05:18.920Z,64.26
2023-05-25T05:05:51.453Z,64.38
2023-05-25T05:06:29.617Z,63.97
2023-05-25T05:07:04.452Z,64.05
2023-05-25T05:07:37.424Z,64.06
2023-05-25T05:08:12.525Z,63.79
2023-05-25T05:08:44.759Z,63.83
2023-05-25T05:09:19.542Z,63.69
2023-05-25T05:09:55.198Z,63.43
2023-05-25T05:10:27.506Z,63.67
2023-05-25T05:11:05.077Z,63.23
2023-05-25T05:11:37.276Z,63.26
2023-05-25T05:12:12.176Z,63.04
2023-05-25T05:12:52.155Z,62.90
2023-05-25T05:13:24.993Z,62.52
2023-05-25T05:13:59.308Z,62.51
2023-05-25T05:14:34.184Z,62.38
2023-05-25T05:15:07.548Z,62.47
2023-05-25T05:15:39.859Z,62.09
2023-05-25T05:16:14.736Z,62.10
2023-05-25T05:16:48.415Z,61.98
2023-05-25T05:17:21.230Z,61.88
2023-05-25T05:17:57.046Z,61.68
2023-05-25T05:18:29.868Z,61.15
2023-05-25T05:19:02.842Z,61.50
2023-05-25T05:19:38.210Z,60.99
2023-05-25T05:20:13.283Z,61.21
2023-05-25T05:20:46.247Z,61.00
2023-05-25T05:21:22.157Z,60.45
2023-05-25T05:21:55.817Z,60.48
2023-05-25T05:22:30.940Z,60.82
2023-05-25T05:23:06.082Z,60.49
2023-05-25T05:23:39.388Z,59.83
2023-05-25T05:24:11.717Z,59.82
2023-05-25T05:24:49.176Z,59.94
2023-05-25T05:25:27.591Z,59.89
2023-05-25T05:25:59.835Z,59.77
2023-05-25T05:26:51.883Z,59.25
2023-05-25T05:27:27.173Z,59.15
2023-05-25T05:28:07.240Z,59.51
2023-05-25T05:28:44.534Z,59.57
2023-05-25T05:29:17.268Z,59.43
2023-05-25T05:29:52.010Z,59.02
2023-05-25T05:30:24.257Z,59.23
2023-05-25T05:30:56.591Z,59.20
2023-05-25T05:31:31.899Z,58.96
2023-05-25T05:32:04.503Z,58.82
2023-05-25T05:32:37.557Z,58.57
2023-05-25T05:33:12.616Z,58.43
2023-05-25T05:33:50.115Z,58.33
2023-05-25T05:34:25.591Z,58.60
2023-05-25T05:34:57.815Z,58.56
2023-05-25T05:35:46.409Z,58.23
2023-05-25T05:36:23.480Z,58.09
2023-05-25T05:36:58.846Z,58.10
2023-05-25T05:37:35.167Z,58.67
2023-05-25T05:38:07.690Z,58.48
2023-05-25T05:38:43.219Z,58.45
2023-05-25T05:39:15.827Z,58.50
2023-05-25T05:39:52.805Z,58.38
2023-05-25T05:40:27.839Z,58.17
2023-05-25T05:41:00.101Z,57.71
2023-05-25T05:41:32.792Z,57.79
2023-05-25T05:42:08.378Z,57.50
2023-05-25T05:42:40.775Z,57.66
2023-05-25T05:43:14.667Z,57.67
2023-05-25T05:43:49.448Z,57.30
2023-05-25T05:44:24.642Z,57.35
2023-05-25T05:44:58.504Z,57.21
2023-05-25T05:45:33.357Z,57.31
2023-05-25T05:46:05.739Z,56.89
2023-05-25T05:46:38.253Z,57.05
2023-05-25T05:47:13.055Z,56.68
2023-05-25T05:47:45.414Z,56.82
2023-05-25T05:48:17.718Z,57.37
2023-05-25T05:48:52.799Z,57.18
2023-05-25T05:49:25.056Z,57.63
2023-05-25T05:49:57.325Z,57.36
2023-05-25T05:50:32.486Z,56.95
2023-05-25T05:51:05.964Z,56.99
2023-05-25T05:51:38.665Z,57.25
2023-05-25T05:52:13.484Z,56.70
2023-05-25T05:52:45.956Z,56.63
2023-05-25T05:53:18.248Z,56.06
2023-05-25T05:53:53.030Z,56.16
2023-05-25T05:54:25.312Z,55.60
2023-05-25T05:55:00.752Z,55.37
2023-05-25T05:55:35.883Z,55.33
2023-05-25T05:56:17.681Z,55.05
2023-05-25T05:56:51.615Z,54.97
2023-05-25T05:57:26.445Z,54.71
2023-05-25T05:57:58.843Z,54.14
2023-05-25T05:58:32.611Z,53.82
2023-05-25T05:59:08.674Z,54.20
2023-05-25T05:59:41.369Z,53.75
2023-05-25T06:00:16.315Z,53.84
2023-05-25T06:00:51.553Z,53.77
2023-05-25T06:01:23.967Z,53.36
2023-05-25T06:01:56.385Z,53.52
2023-05-25T06:02:31.227Z,53.39
2023-05-25T06:03:03.633Z,53.36
2023-05-25T06:03:38.226Z,53.27
2023-05-25T06:04:13.740Z,53.18
2023-05-25T06:04:46.077Z,53.03
2023-05-25T06:05:19.250Z,53.45
2023-05-25T06:05:54.089Z,53.00
2023-05-25T06:06:27.798Z,52.87
2023-05-25T06:07:00.401Z,53.21
2023-05-25T06:07:35.504Z,53.40
2023-05-25T06:08:10.303Z,52.96
2023-05-25T06:08:45.688Z,53.45
2023-05-25T06:09:18.369Z,53.33
2023-05-25T06:09:50.614Z,52.92
2023-05-25T06:10:28.063Z,52.80
2023-05-25T06:11:00.318Z,52.87
2023-05-25T06:11:32.671Z,52.64
2023-05-25T06:12:08.838Z,53.11
2023-05-25T06:12:41.307Z,52.78
2023-05-25T06:13:13.943Z,52.91
2023-05-25T06:13:49.537Z,53.22
2023-05-25T06:14:21.875Z,53.55
2023-05-25T06:14:54.551Z,54.54
2023-05-25T06:15:29.481Z,54.74
2023-05-25T06:16:04.837Z,54.74
2023-05-25T06:16:37.635Z,54.92
2023-05-25T06:17:12.481Z,54.88
2023-05-25T06:17:44.968Z,54.95
2023-05-25T06:18:19.877Z,54.94
2023-05-25T06:18:52.155Z,55.20
2023-05-25T06:19:24.365Z,55.34
2023-05-25T06:19:59.678Z,54.71
2023-05-25T06:20:32.058Z,54.56
2023-05-25T06:21:04.899Z,54.67
2023-05-25T06:21:40.340Z,54.51
2023-05-25T06:22:12.516Z,54.18
2023-05-25T06:22:47.281Z,54.42
2023-05-25T06:23:19.523Z,54.27
2023-05-25T06:23:51.688Z,54.44
2023-05-25T06:24:26.841Z,54.63
2023-05-25T06:24:59.023Z,54.36
2023-05-25T06:25:35.010Z,53.58
2023-05-25T06:26:10.051Z,53.61
2023-05-25T06:26:42.792Z,53.26
2023-05-25T06:27:15.020Z,53.21
2023-05-25T06:27:49.942Z,52.67
2023-05-25T06:28:22.298Z,52.28
2023-05-25T06:28:55.297Z,52.02
2023-05-25T06:29:31.773Z,51.78
2023-05-25T06:30:05.090Z,51.13
2023-05-25T06:30:37.530Z,51.26
2023-05-25T06:31:13.013Z,51.14
2023-05-25T06:31:45.291Z,51.44
2023-05-25T06:32:17.916Z,51.43
2023-05-25T06:32:52.830Z,51.64
2023-05-25T06:33:25.132Z,51.39
2023-05-25T06:33:59.925Z,51.32
2023-05-25T06:34:32.725Z,51.28
2023-05-25T06:35:10.121Z,51.05
2023-05-25T06:35:43.423Z,51.06
2023-05-25T06:36:18.412Z,50.61
2023-05-25T06:36:50.683Z,50.55
2023-05-25T06:37:23.355Z,51.07
2023-05-25T06:37:58.229Z,51.28
2023-05-25T06:38:30.791Z,50.46
2023-05-25T06:39:03.006Z,49.79
2023-05-25T06:39:37.919Z,50.12
2023-05-25T06:40:11.899Z,49.81
2023-05-25T06:40:46.720Z,49.69
2023-05-25T06:41:21.999Z,49.95
2023-05-25T06:41:57.215Z,49.86
2023-05-25T06:42:38.150Z,50.14
2023-05-25T06:43:10.467Z,49.61
2023-05-25T06:43:50.929Z,49.63
2023-05-25T06:44:35.824Z,49.67
2023-05-25T06:45:09.701Z,49.61
2023-05-25T06:45:44.668Z,49.82
2023-05-25T06:46:18.727Z,49.80
2023-05-25T06:46:53.703Z,49.67
2023-05-25T06:47:26.035Z,49.89
2023-05-25T06:48:00.992Z,49.50
2023-05-25T06:48:33.295Z,49.22
2023-05-25T06:49:06.021Z,49.20
2023-05-25T06:49:40.936Z,49.08
2023-05-25T06:50:13.882Z,48.84
2023-05-25T06:50:46.540Z,48.71
2023-05-25T06:51:21.623Z,48.71
2023-05-25T06:51:53.839Z,48.75
2023-05-25T06:52:28.359Z,49.02
2023-05-25T06:53:03.252Z,48.64
2023-05-25T06:53:35.480Z,48.90
2023-05-25T06:54:08.820Z,48.62
2023-05-25T06:54:43.608Z,48.46
2023-05-25T06:55:16.018Z,48.48
2023-05-25T06:55:53.473Z,48.56
2023-05-25T06:56:25.768Z,48.84
2023-05-25T06:56:57.958Z,48.13
2023-05-25T06:57:32.713Z,48.08
2023-05-25T06:58:04.876Z,48.00
2023-05-25T06:58:39.758Z,48.21
2023-05-25T06:59:11.975Z,48.31
2023-05-25T06:59:44.171Z,47.92
2023-05-25T07:00:21.704Z,48.33
2023-05-25T07:00:53.981Z,48.12
2023-05-25T07:01:26.368Z,48.18
2023-05-25T07:02:01.198Z,48.14
2023-05-25T07:02:34.370Z,48.54
2023-05-25T07:03:06.667Z,48.26
2023-05-25T07:03:41.472Z,48.71
2023-05-25T07:04:13.866Z,47.97
2023-05-25T07:04:48.679Z,48.38
2023-05-25T07:05:21.289Z,47.97
2023-05-25T07:05:56.153Z,48.00
2023-05-25T07:06:28.390Z,47.87
2023-05-25T07:07:03.394Z,48.07
2023-05-25T07:07:35.753Z,47.93
2023-05-25T07:08:10.758Z,47.67
2023-05-25T07:08:42.945Z,47.56
2023-05-25T07:09:17.827Z,47.45
2023-05-25T07:09:50.136Z,47.20
2023-05-25T07:10:24.019Z,47.26
2023-05-25T07:11:01.478Z,47.10
2023-05-25T07:11:34.016Z,47.20
2023-05-25T07:12:07.840Z,47.07
2023-05-25T07:12:42.870Z,47.46
2023-05-25T07:13:15.414Z,47.46
2023-05-25T07:13:50.337Z,47.31
2023-05-25T07:14:22.598Z,47.41
2023-05-25T07:14:54.769Z,47.70
2023-05-25T07:15:29.629Z,47.23
2023-05-25T07:16:01.840Z,47.68
2023-05-25T07:16:36.700Z,47.26
2023-05-25T07:17:08.924Z,47.29
2023-05-25T07:17:41.186Z,47.68
2023-05-25T07:18:16.436Z,47.58
2023-05-25T07:18:48.688Z,47.41
2023-05-25T07:19:20.972Z,47.12
2023-05-25T07:19:55.770Z,46.92
2023-05-25T07:20:28.015Z,46.98
2023-05-25T07:21:03.647Z,46.49
2023-05-25T07:21:36.817Z,47.58
2023-05-25T07:22:11.752Z,47.42
2023-05-25T07:22:43.974Z,47.70
2023-05-25T07:23:16.153Z,47.73
2023-05-25T07:23:51.005Z,47.29
2023-05-25T07:24:23.216Z,47.22
2023-05-25T07:24:55.426Z,47.20
2023-05-25T07:25:30.282Z,46.59
2023-05-25T07:26:06.543Z,45.83
2023-05-25T07:26:41.374Z,46.35
2023-05-25T07:27:14.667Z,46.04
2023-05-25T07:27:55.245Z,46.38
2023-05-25T07:28:27.447Z,46.35
2023-05-25T07:28:59.884Z,46.20
2023-05-25T07:29:34.736Z,46.51
2023-05-25T07:30:08.675Z,46.33
2023-05-25T07:30:43.715Z,46.27
2023-05-25T07:31:16.515Z,46.02
2023-05-25T07:31:48.823Z,46.11